PWSweather.com
Personal Weather Stations
Station Observations
KAZTUCSO57
Countryside Manor, Tucson, AZ 85742

Countryside ManorTucson, AZ 85742

Lat: 32.3692, Lon: -111.066

Elevation: 2307

Station Type: Davis VP Pro+ 6163

http://frogville.us

Latest ConditionsUpdated 4:50:01 AM MST Friday, Aug 26, 2016
Currently Today's Max Today's Min Today's Average
Temperature 78.4°F25.8°C 84.9°F29.4°C 78.4°F25.8°C 81.9°F27.7°C
Dew Point 62.9°F17.2°C 64.2°F17.9°C 56.9°F13.8°C 60.2°F15.7°C
Winds Calm Calm 3.5 mph SE5.6 kmh SE - 0.6 mph 1.0 kmh
Wind Gusts 2.3 mph3.7 kmh 4.6 mph7.4 kmh - -
Humidity 59% 60% 39% 48%
Pressure 29.77 in1008.1 mb 29.78 in1008.5 mb 29.76 in1007.8 mb -
Hour Temp Dew Point Humidity Winds Wind Gusts Pressure Precip Precip Rate Daily Precip Total
04:50 AM 78.4°F25.8°C 62.9°F17.2°C 59% Calm Calm 2.3 mph3.7 kmh 29.77 in1008.1 mb - 0.00 in0.0 mm 0.00 in0.0 mm
04:40 AM 78.6°F25.9°C 63.6°F17.6°C 60% 1.2 mph SE1.9 kmh SE 3.5 mph5.6 kmh 29.77 in1008.1 mb - 0.00 in0.0 mm 0.00 in0.0 mm
04:30 AM 78.8°F26.0°C 63.3°F17.4°C 59% Calm Calm -- 29.77 in1008.1 mb - 0.00 in0.0 mm 0.00 in0.0 mm
04:20 AM 79.1°F26.2°C 64.0°F17.8°C 60% Calm Calm 1.2 mph1.9 kmh 29.77 in1008.1 mb - 0.00 in0.0 mm 0.00 in0.0 mm
04:10 AM 79.8°F26.6°C 64.2°F17.9°C 59% 1.2 mph ENE1.9 kmh ENE 1.2 mph1.9 kmh 29.77 in1008.1 mb - 0.00 in0.0 mm 0.00 in0.0 mm
04:00 AM 80.3°F26.8°C 62.1°F16.7°C 54% 1.2 mph ESE1.9 kmh ESE 2.3 mph3.7 kmh 29.77 in1008.1 mb - 0.00 in0.0 mm 0.00 in0.0 mm
03:50 AM 80.4°F26.9°C 62.2°F16.8°C 54% Calm Calm 1.2 mph1.9 kmh 29.77 in1008.1 mb - 0.00 in0.0 mm 0.00 in0.0 mm
03:40 AM 80.6°F27.0°C 61.9°F16.6°C 53% 1.2 mph E1.9 kmh E 3.5 mph5.6 kmh 29.77 in1008.1 mb - 0.00 in0.0 mm 0.00 in0.0 mm
03:30 AM 81.1°F27.3°C 62.3°F16.8°C 53% 2.3 mph E3.7 kmh E 3.5 mph5.6 kmh 29.77 in1008.1 mb - 0.00 in0.0 mm 0.00 in0.0 mm
03:20 AM 81.8°F27.7°C 61.3°F16.3°C 50% 3.5 mph SE5.6 kmh SE 4.6 mph7.4 kmh 29.77 in1008.1 mb - 0.00 in0.0 mm 0.00 in0.0 mm
03:10 AM 81.9°F27.7°C 60.9°F16.1°C 49% 1.2 mph E1.9 kmh E 3.5 mph5.6 kmh 29.77 in1008.1 mb - 0.00 in0.0 mm 0.00 in0.0 mm
03:00 AM 82.0°F27.8°C 60.4°F15.8°C 48% 1.2 mph S1.9 kmh S 3.5 mph5.6 kmh 29.77 in1008.1 mb - 0.00 in0.0 mm 0.00 in0.0 mm
02:50 AM 82.1°F27.8°C 60.4°F15.8°C 48% 1.2 mph SE1.9 kmh SE 3.5 mph5.6 kmh 29.77 in1008.1 mb - 0.00 in0.0 mm 0.00 in0.0 mm
02:40 AM 82.1°F27.8°C 60.5°F15.8°C 48% Calm Calm 2.3 mph3.7 kmh 29.77 in1008.1 mb - 0.00 in0.0 mm 0.00 in0.0 mm
02:30 AM 82.2°F27.9°C 60.0°F15.6°C 47% 2.3 mph SE3.7 kmh SE 4.6 mph7.4 kmh 29.76 in1007.8 mb - 0.00 in0.0 mm 0.00 in0.0 mm
02:20 AM 82.4°F28.0°C 59.5°F15.3°C 46% 1.2 mph ESE1.9 kmh ESE 3.5 mph5.6 kmh 29.77 in1008.1 mb - 0.00 in0.0 mm 0.00 in0.0 mm
02:10 AM 82.5°F28.1°C 59.0°F15.0°C 45% Calm Calm -- 29.77 in1008.1 mb - 0.00 in0.0 mm 0.00 in0.0 mm
02:00 AM 82.5°F28.1°C 59.0°F15.0°C 45% Calm Calm -- 29.77 in1008.1 mb - 0.00 in0.0 mm 0.00 in0.0 mm
01:50 AM 82.6°F28.1°C 58.5°F14.7°C 44% Calm Calm -- 29.77 in1008.1 mb - 0.00 in0.0 mm 0.00 in0.0 mm
01:40 AM 82.7°F28.2°C 58.5°F14.7°C 44% Calm Calm -- 29.77 in1008.1 mb - 0.00 in0.0 mm 0.00 in0.0 mm
01:30 AM 82.7°F28.2°C 58.6°F14.8°C 44% Calm Calm -- 29.77 in1008.1 mb - 0.00 in0.0 mm 0.00 in0.0 mm
01:20 AM 82.8°F28.2°C 59.3°F15.2°C 45% Calm Calm -- 29.77 in1008.1 mb - 0.00 in0.0 mm 0.00 in0.0 mm
01:10 AM 82.9°F28.3°C 58.7°F14.8°C 44% Calm Calm -- 29.77 in1008.1 mb - 0.00 in0.0 mm 0.00 in0.0 mm
01:00 AM 82.9°F28.3°C 58.7°F14.8°C 44% Calm Calm -- 29.77 in1008.1 mb - 0.00 in0.0 mm 0.00 in0.0 mm
12:50 AM 83.1°F28.4°C 59.6°F15.3°C 45% Calm Calm -- 29.77 in1008.1 mb - 0.00 in0.0 mm 0.00 in0.0 mm
12:40 AM 83.6°F28.7°C 58.1°F14.5°C 42% Calm Calm -- 29.77 in1008.1 mb - 0.00 in0.0 mm 0.00 in0.0 mm
12:30 AM 84.0°F28.9°C 57.8°F14.3°C 41% Calm Calm -- 29.77 in1008.1 mb - 0.00 in0.0 mm 0.00 in0.0 mm
12:20 AM 84.5°F29.2°C 57.5°F14.2°C 40% Calm Calm -- 29.77 in1008.1 mb - 0.00 in0.0 mm 0.00 in0.0 mm
12:10 AM 84.6°F29.2°C 56.9°F13.8°C 39% Calm Calm -- 29.77 in1008.1 mb - 0.00 in0.0 mm 0.00 in0.0 mm
12:00 AM 84.9°F29.4°C 57.2°F14.0°C 39% Calm Calm -- 29.78 in1008.5 mb - 0.00 in0.0 mm 0.00 in0.0 mm